sensor_id;sensor_type;location;lat;lon;timestamp;P1;durP1;ratioP1;P2;durP2;ratioP2
70985;SDS011;58645;43.068;25.610;2023-11-21T00:01:18;8.82;;;5.00;;
70985;SDS011;58645;43.068;25.610;2023-11-21T00:03:44;8.25;;;4.63;;
70985;SDS011;58645;43.068;25.610;2023-11-21T00:06:10;8.02;;;4.60;;
70985;SDS011;58645;43.068;25.610;2023-11-21T00:08:36;11.98;;;4.93;;
70985;SDS011;58645;43.068;25.610;2023-11-21T00:11:02;11.15;;;5.07;;
70985;SDS011;58645;43.068;25.610;2023-11-21T00:13:30;11.18;;;5.22;;
70985;SDS011;58645;43.068;25.610;2023-11-21T00:16:00;11.45;;;4.90;;
70985;SDS011;58645;43.068;25.610;2023-11-21T00:18:25;8.98;;;5.13;;
70985;SDS011;58645;43.068;25.610;2023-11-21T00:20:51;12.13;;;5.50;;
70985;SDS011;58645;43.068;25.610;2023-11-21T00:23:17;10.10;;;4.72;;
70985;SDS011;58645;43.068;25.610;2023-11-21T00:25:43;9.13;;;5.45;;
70985;SDS011;58645;43.068;25.610;2023-11-21T00:28:09;11.32;;;5.57;;
70985;SDS011;58645;43.068;25.610;2023-11-21T00:30:35;10.10;;;6.05;;
70985;SDS011;58645;43.068;25.610;2023-11-21T00:33:00;8.48;;;4.95;;
70985;SDS011;58645;43.068;25.610;2023-11-21T00:35:26;10.55;;;5.50;;
70985;SDS011;58645;43.068;25.610;2023-11-21T00:37:52;9.45;;;5.55;;
70985;SDS011;58645;43.068;25.610;2023-11-21T00:40:17;10.75;;;5.93;;
70985;SDS011;58645;43.068;25.610;2023-11-21T00:42:46;10.88;;;5.65;;
70985;SDS011;58645;43.068;25.610;2023-11-21T00:45:12;12.20;;;6.28;;
70985;SDS011;58645;43.068;25.610;2023-11-21T00:47:38;15.45;;;6.55;;
70985;SDS011;58645;43.068;25.610;2023-11-21T00:50:04;16.88;;;7.00;;
70985;SDS011;58645;43.068;25.610;2023-11-21T00:52:31;16.25;;;7.65;;
70985;SDS011;58645;43.068;25.610;2023-11-21T00:54:57;15.00;;;9.05;;
70985;SDS011;58645;43.068;25.610;2023-11-21T00:57:25;14.98;;;8.63;;
70985;SDS011;58645;43.068;25.610;2023-11-21T00:59:51;19.27;;;8.57;;
70985;SDS011;58645;43.068;25.610;2023-11-21T01:02:17;14.38;;;7.80;;
70985;SDS011;58645;43.068;25.610;2023-11-21T01:04:43;19.92;;;9.02;;
70985;SDS011;58645;43.068;25.610;2023-11-21T01:07:09;20.23;;;9.63;;
70985;SDS011;58645;43.068;25.610;2023-11-21T01:09:34;18.10;;;9.77;;
70985;SDS011;58645;43.068;25.610;2023-11-21T01:12:00;16.23;;;8.13;;
70985;SDS011;58645;43.068;25.610;2023-11-21T01:14:26;15.02;;;6.65;;
70985;SDS011;58645;43.068;25.610;2023-11-21T01:16:52;15.20;;;6.72;;
70985;SDS011;58645;43.068;25.610;2023-11-21T01:19:18;10.60;;;5.68;;
70985;SDS011;58645;43.068;25.610;2023-11-21T01:21:44;9.35;;;5.05;;
70985;SDS011;58645;43.068;25.610;2023-11-21T01:24:10;9.05;;;5.10;;
70985;SDS011;58645;43.068;25.610;2023-11-21T01:26:35;8.23;;;4.13;;
70985;SDS011;58645;43.068;25.610;2023-11-21T01:29:01;7.65;;;4.28;;
70985;SDS011;58645;43.068;25.610;2023-11-21T01:31:27;6.72;;;3.78;;
70985;SDS011;58645;43.068;25.610;2023-11-21T01:33:55;10.00;;;5.00;;
70985;SDS011;58645;43.068;25.610;2023-11-21T01:36:21;10.60;;;5.80;;
70985;SDS011;58645;43.068;25.610;2023-11-21T01:38:47;9.88;;;5.75;;
70985;SDS011;58645;43.068;25.610;2023-11-21T01:41:15;11.35;;;6.40;;
70985;SDS011;58645;43.068;25.610;2023-11-21T01:43:41;14.15;;;7.10;;
70985;SDS011;58645;43.068;25.610;2023-11-21T01:46:08;12.63;;;7.68;;
70985;SDS011;58645;43.068;25.610;2023-11-21T01:48:34;14.07;;;7.40;;
70985;SDS011;58645;43.068;25.610;2023-11-21T01:51:00;12.20;;;6.00;;
70985;SDS011;58645;43.068;25.610;2023-11-21T01:53:27;8.77;;;5.40;;
70985;SDS011;58645;43.068;25.610;2023-11-21T01:55:53;8.48;;;5.28;;
70985;SDS011;58645;43.068;25.610;2023-11-21T02:03:15;9.38;;;4.85;;
70985;SDS011;58645;43.068;25.610;2023-11-21T02:05:41;9.73;;;6.43;;
70985;SDS011;58645;43.068;25.610;2023-11-21T02:08:07;10.52;;;5.70;;
70985;SDS011;58645;43.068;25.610;2023-11-21T02:10:34;13.75;;;7.25;;
70985;SDS011;58645;43.068;25.610;2023-11-21T02:13:02;20.77;;;10.27;;
70985;SDS011;58645;43.068;25.610;2023-11-21T02:15:28;35.20;;;16.83;;
70985;SDS011;58645;43.068;25.610;2023-11-21T02:17:54;32.17;;;16.38;;
70985;SDS011;58645;43.068;25.610;2023-11-21T02:20:20;35.17;;;16.00;;
70985;SDS011;58645;43.068;25.610;2023-11-21T02:22:52;26.48;;;13.73;;
70985;SDS011;58645;43.068;25.610;2023-11-21T02:25:32;27.10;;;12.75;;
70985;SDS011;58645;43.068;25.610;2023-11-21T02:28:02;29.15;;;12.98;;
70985;SDS011;58645;43.068;25.610;2023-11-21T02:30:28;23.67;;;11.80;;
70985;SDS011;58645;43.068;25.610;2023-11-21T02:32:58;25.45;;;12.00;;
70985;SDS011;58645;43.068;25.610;2023-11-21T02:35:25;22.40;;;11.20;;
70985;SDS011;58645;43.068;25.610;2023-11-21T02:37:53;21.70;;;9.77;;
70985;SDS011;58645;43.068;25.610;2023-11-21T02:40:19;19.77;;;10.23;;
70985;SDS011;58645;43.068;25.610;2023-11-21T02:42:46;16.08;;;7.13;;
70985;SDS011;58645;43.068;25.610;2023-11-21T02:45:13;15.60;;;8.85;;
70985;SDS011;58645;43.068;25.610;2023-11-21T02:47:41;13.70;;;8.43;;
70985;SDS011;58645;43.068;25.610;2023-11-21T02:50:10;15.00;;;8.07;;
70985;SDS011;58645;43.068;25.610;2023-11-21T02:52:36;15.27;;;8.50;;
70985;SDS011;58645;43.068;25.610;2023-11-21T02:55:02;13.57;;;7.30;;
70985;SDS011;58645;43.068;25.610;2023-11-21T02:57:28;12.45;;;7.72;;
70985;SDS011;58645;43.068;25.610;2023-11-21T02:59:54;15.43;;;8.82;;
70985;SDS011;58645;43.068;25.610;2023-11-21T03:02:20;11.55;;;5.75;;
70985;SDS011;58645;43.068;25.610;2023-11-21T03:04:47;10.75;;;6.28;;
70985;SDS011;58645;43.068;25.610;2023-11-21T03:07:14;11.82;;;5.72;;
70985;SDS011;58645;43.068;25.610;2023-11-21T03:09:40;14.32;;;6.70;;
70985;SDS011;58645;43.068;25.610;2023-11-21T03:12:06;12.73;;;6.80;;
70985;SDS011;58645;43.068;25.610;2023-11-21T03:14:32;10.95;;;6.80;;
70985;SDS011;58645;43.068;25.610;2023-11-21T03:16:57;9.70;;;5.38;;
70985;SDS011;58645;43.068;25.610;2023-11-21T03:19:23;9.68;;;6.15;;
70985;SDS011;58645;43.068;25.610;2023-11-21T03:21:49;11.82;;;5.63;;
70985;SDS011;58645;43.068;25.610;2023-11-21T03:24:14;9.95;;;5.38;;
70985;SDS011;58645;43.068;25.610;2023-11-21T03:26:45;15.23;;;5.97;;
70985;SDS011;58645;43.068;25.610;2023-11-21T03:31:37;8.68;;;5.93;;
70985;SDS011;58645;43.068;25.610;2023-11-21T03:34:03;10.40;;;5.38;;
70985;SDS011;58645;43.068;25.610;2023-11-21T03:36:29;9.13;;;5.22;;
70985;SDS011;58645;43.068;25.610;2023-11-21T03:38:54;11.70;;;5.88;;
70985;SDS011;58645;43.068;25.610;2023-11-21T03:41:21;12.93;;;5.65;;
70985;SDS011;58645;43.068;25.610;2023-11-21T03:43:46;9.23;;;5.22;;
70985;SDS011;58645;43.068;25.610;2023-11-21T03:46:12;9.63;;;5.47;;
70985;SDS011;58645;43.068;25.610;2023-11-21T03:48:38;11.38;;;5.75;;
70985;SDS011;58645;43.068;25.610;2023-11-21T03:51:04;10.40;;;5.20;;
70985;SDS011;58645;43.068;25.610;2023-11-21T03:53:30;8.68;;;4.72;;
70985;SDS011;58645;43.068;25.610;2023-11-21T03:55:55;9.43;;;6.05;;
70985;SDS011;58645;43.068;25.610;2023-11-21T03:58:21;11.05;;;5.22;;
70985;SDS011;58645;43.068;25.610;2023-11-21T04:00:47;8.80;;;4.75;;
70985;SDS011;58645;43.068;25.610;2023-11-21T04:03:16;9.48;;;4.57;;
70985;SDS011;58645;43.068;25.610;2023-11-21T04:05:41;8.57;;;4.75;;
70985;SDS011;58645;43.068;25.610;2023-11-21T04:08:07;8.32;;;4.78;;
70985;SDS011;58645;43.068;25.610;2023-11-21T04:10:33;10.73;;;6.18;;
70985;SDS011;58645;43.068;25.610;2023-11-21T04:12:59;10.60;;;5.07;;
70985;SDS011;58645;43.068;25.610;2023-11-21T04:15:25;10.45;;;5.68;;
70985;SDS011;58645;43.068;25.610;2023-11-21T04:17:51;10.38;;;5.03;;
70985;SDS011;58645;43.068;25.610;2023-11-21T04:20:17;10.23;;;5.47;;
70985;SDS011;58645;43.068;25.610;2023-11-21T04:22:43;11.20;;;5.72;;
70985;SDS011;58645;43.068;25.610;2023-11-21T04:25:15;12.10;;;5.43;;
70985;SDS011;58645;43.068;25.610;2023-11-21T04:27:41;10.50;;;5.78;;
70985;SDS011;58645;43.068;25.610;2023-11-21T04:30:09;9.70;;;5.10;;
70985;SDS011;58645;43.068;25.610;2023-11-21T04:32:36;9.10;;;5.22;;
70985;SDS011;58645;43.068;25.610;2023-11-21T04:35:01;10.88;;;5.35;;
70985;SDS011;58645;43.068;25.610;2023-11-21T04:37:29;10.95;;;6.72;;
70985;SDS011;58645;43.068;25.610;2023-11-21T04:39:55;11.45;;;5.93;;
70985;SDS011;58645;43.068;25.610;2023-11-21T04:42:20;14.02;;;6.00;;
70985;SDS011;58645;43.068;25.610;2023-11-21T04:44:47;13.50;;;6.43;;
70985;SDS011;58645;43.068;25.610;2023-11-21T04:47:13;10.80;;;6.75;;
70985;SDS011;58645;43.068;25.610;2023-11-21T04:49:41;13.82;;;7.22;;
70985;SDS011;58645;43.068;25.610;2023-11-21T04:52:07;15.40;;;7.47;;
70985;SDS011;58645;43.068;25.610;2023-11-21T04:54:34;17.40;;;7.65;;
70985;SDS011;58645;43.068;25.610;2023-11-21T04:57:00;14.00;;;8.20;;
70985;SDS011;58645;43.068;25.610;2023-11-21T04:59:27;16.92;;;7.95;;
70985;SDS011;58645;43.068;25.610;2023-11-21T05:01:53;19.08;;;8.65;;
70985;SDS011;58645;43.068;25.610;2023-11-21T05:04:19;15.30;;;8.05;;
70985;SDS011;58645;43.068;25.610;2023-11-21T05:06:47;14.40;;;7.78;;
70985;SDS011;58645;43.068;25.610;2023-11-21T05:09:13;14.77;;;9.13;;
70985;SDS011;58645;43.068;25.610;2023-11-21T05:11:39;18.05;;;8.05;;
70985;SDS011;58645;43.068;25.610;2023-11-21T05:14:05;16.88;;;8.95;;
70985;SDS011;58645;43.068;25.610;2023-11-21T05:16:31;19.90;;;10.13;;
70985;SDS011;58645;43.068;25.610;2023-11-21T05:21:28;20.85;;;9.80;;
70985;SDS011;58645;43.068;25.610;2023-11-21T05:23:56;23.15;;;10.95;;
70985;SDS011;58645;43.068;25.610;2023-11-21T05:26:22;18.33;;;10.35;;
70985;SDS011;58645;43.068;25.610;2023-11-21T05:28:48;19.15;;;8.70;;
70985;SDS011;58645;43.068;25.610;2023-11-21T05:31:13;23.65;;;9.25;;
70985;SDS011;58645;43.068;25.610;2023-11-21T05:33:42;14.63;;;8.45;;
70985;SDS011;58645;43.068;25.610;2023-11-21T05:36:08;14.90;;;8.13;;
70985;SDS011;58645;43.068;25.610;2023-11-21T05:38:35;16.77;;;8.82;;
70985;SDS011;58645;43.068;25.610;2023-11-21T05:41:01;14.15;;;7.05;;
70985;SDS011;58645;43.068;25.610;2023-11-21T05:43:37;18.75;;;9.77;;
70985;SDS011;58645;43.068;25.610;2023-11-21T05:46:03;16.38;;;9.25;;
70985;SDS011;58645;43.068;25.610;2023-11-21T05:48:29;14.60;;;8.10;;
70985;SDS011;58645;43.068;25.610;2023-11-21T05:50:55;15.43;;;7.72;;
70985;SDS011;58645;43.068;25.610;2023-11-21T05:53:21;12.00;;;7.25;;
70985;SDS011;58645;43.068;25.610;2023-11-21T05:58:43;11.00;;;5.90;;
70985;SDS011;58645;43.068;25.610;2023-11-21T06:01:08;13.27;;;7.20;;
70985;SDS011;58645;43.068;25.610;2023-11-21T06:03:38;14.10;;;6.55;;
70985;SDS011;58645;43.068;25.610;2023-11-21T06:06:03;14.68;;;7.07;;
70985;SDS011;58645;43.068;25.610;2023-11-21T06:08:30;15.73;;;7.38;;
70985;SDS011;58645;43.068;25.610;2023-11-21T06:10:55;11.85;;;6.18;;
70985;SDS011;58645;43.068;25.610;2023-11-21T06:13:21;14.48;;;6.72;;
70985;SDS011;58645;43.068;25.610;2023-11-21T06:15:49;12.45;;;6.93;;
70985;SDS011;58645;43.068;25.610;2023-11-21T06:18:16;13.90;;;6.97;;
70985;SDS011;58645;43.068;25.610;2023-11-21T06:20:44;14.45;;;6.57;;
70985;SDS011;58645;43.068;25.610;2023-11-21T06:23:13;9.30;;;5.93;;
70985;SDS011;58645;43.068;25.610;2023-11-21T06:25:45;16.05;;;6.72;;
70985;SDS011;58645;43.068;25.610;2023-11-21T06:28:11;17.42;;;8.07;;
70985;SDS011;58645;43.068;25.610;2023-11-21T06:30:37;15.02;;;8.10;;
70985;SDS011;58645;43.068;25.610;2023-11-21T06:33:03;15.70;;;7.18;;
70985;SDS011;58645;43.068;25.610;2023-11-21T06:35:29;14.57;;;8.20;;
70985;SDS011;58645;43.068;25.610;2023-11-21T06:37:57;17.63;;;6.20;;
70985;SDS011;58645;43.068;25.610;2023-11-21T06:40:23;15.50;;;7.82;;
70985;SDS011;58645;43.068;25.610;2023-11-21T06:42:49;13.82;;;7.07;;
70985;SDS011;58645;43.068;25.610;2023-11-21T06:45:16;18.42;;;8.98;;
70985;SDS011;58645;43.068;25.610;2023-11-21T06:47:46;18.92;;;10.63;;
70985;SDS011;58645;43.068;25.610;2023-11-21T06:50:13;21.92;;;11.82;;
70985;SDS011;58645;43.068;25.610;2023-11-21T06:52:39;25.92;;;12.07;;
70985;SDS011;58645;43.068;25.610;2023-11-21T06:55:05;24.58;;;12.70;;
70985;SDS011;58645;43.068;25.610;2023-11-21T06:57:33;22.65;;;9.98;;
70985;SDS011;58645;43.068;25.610;2023-11-21T06:59:59;27.17;;;12.32;;
70985;SDS011;58645;43.068;25.610;2023-11-21T07:02:25;20.33;;;9.95;;
70985;SDS011;58645;43.068;25.610;2023-11-21T07:04:50;29.33;;;14.70;;
70985;SDS011;58645;43.068;25.610;2023-11-21T07:07:18;36.35;;;19.15;;
70985;SDS011;58645;43.068;25.610;2023-11-21T07:09:44;44.90;;;21.27;;
70985;SDS011;58645;43.068;25.610;2023-11-21T07:12:10;42.20;;;20.85;;
70985;SDS011;58645;43.068;25.610;2023-11-21T07:14:36;28.85;;;14.38;;
70985;SDS011;58645;43.068;25.610;2023-11-21T07:17:04;24.08;;;13.23;;
70985;SDS011;58645;43.068;25.610;2023-11-21T07:19:30;21.90;;;10.60;;
70985;SDS011;58645;43.068;25.610;2023-11-21T07:21:59;19.83;;;11.93;;
70985;SDS011;58645;43.068;25.610;2023-11-21T07:24:25;23.58;;;12.25;;
70985;SDS011;58645;43.068;25.610;2023-11-21T07:26:51;22.23;;;10.90;;
70985;SDS011;58645;43.068;25.610;2023-11-21T07:29:30;27.52;;;13.13;;
70985;SDS011;58645;43.068;25.610;2023-11-21T07:31:57;43.63;;;16.52;;
70985;SDS011;58645;43.068;25.610;2023-11-21T07:34:22;25.85;;;14.32;;
70985;SDS011;58645;43.068;25.610;2023-11-21T07:36:48;27.15;;;14.80;;
70985;SDS011;58645;43.068;25.610;2023-11-21T07:39:14;24.23;;;13.57;;
70985;SDS011;58645;43.068;25.610;2023-11-21T07:41:43;26.00;;;12.75;;
70985;SDS011;58645;43.068;25.610;2023-11-21T07:44:14;22.52;;;10.63;;
70985;SDS011;58645;43.068;25.610;2023-11-21T07:46:41;16.17;;;11.45;;
70985;SDS011;58645;43.068;25.610;2023-11-21T07:49:07;20.23;;;11.10;;
70985;SDS011;58645;43.068;25.610;2023-11-21T07:51:32;13.95;;;8.65;;
70985;SDS011;58645;43.068;25.610;2023-11-21T07:53:58;17.05;;;10.27;;
70985;SDS011;58645;43.068;25.610;2023-11-21T07:56:24;19.55;;;11.52;;
70985;SDS011;58645;43.068;25.610;2023-11-21T07:58:50;23.00;;;10.98;;
70985;SDS011;58645;43.068;25.610;2023-11-21T08:01:16;19.33;;;8.52;;
70985;SDS011;58645;43.068;25.610;2023-11-21T08:03:41;16.25;;;7.93;;
70985;SDS011;58645;43.068;25.610;2023-11-21T08:06:09;14.50;;;8.85;;
70985;SDS011;58645;43.068;25.610;2023-11-21T08:08:35;14.93;;;8.73;;
70985;SDS011;58645;43.068;25.610;2023-11-21T08:11:01;17.40;;;10.40;;
70985;SDS011;58645;43.068;25.610;2023-11-21T08:13:29;15.88;;;9.75;;
70985;SDS011;58645;43.068;25.610;2023-11-21T08:15:57;18.65;;;10.00;;
70985;SDS011;58645;43.068;25.610;2023-11-21T08:18:27;17.25;;;13.00;;
70985;SDS011;58645;43.068;25.610;2023-11-21T08:20:57;16.48;;;12.32;;
70985;SDS011;58645;43.068;25.610;2023-11-21T08:23:32;16.42;;;10.30;;
70985;SDS011;58645;43.068;25.610;2023-11-21T08:25:59;17.45;;;11.68;;
70985;SDS011;58645;43.068;25.610;2023-11-21T08:28:25;16.30;;;11.60;;
70985;SDS011;58645;43.068;25.610;2023-11-21T08:30:53;14.93;;;11.63;;
70985;SDS011;58645;43.068;25.610;2023-11-21T08:33:22;19.45;;;10.88;;
70985;SDS011;58645;43.068;25.610;2023-11-21T08:35:48;19.65;;;12.68;;
70985;SDS011;58645;43.068;25.610;2023-11-21T08:38:14;22.73;;;13.25;;
70985;SDS011;58645;43.068;25.610;2023-11-21T08:40:40;19.15;;;12.98;;
70985;SDS011;58645;43.068;25.610;2023-11-21T08:43:05;25.42;;;12.35;;
70985;SDS011;58645;43.068;25.610;2023-11-21T08:45:42;23.75;;;12.63;;
70985;SDS011;58645;43.068;25.610;2023-11-21T08:48:08;22.48;;;14.73;;
70985;SDS011;58645;43.068;25.610;2023-11-21T08:50:33;22.08;;;12.15;;
70985;SDS011;58645;43.068;25.610;2023-11-21T08:52:59;21.10;;;12.13;;
70985;SDS011;58645;43.068;25.610;2023-11-21T08:55:25;21.55;;;11.88;;
70985;SDS011;58645;43.068;25.610;2023-11-21T08:57:52;19.40;;;8.52;;
70985;SDS011;58645;43.068;25.610;2023-11-21T09:00:29;15.43;;;8.15;;
70985;SDS011;58645;43.068;25.610;2023-11-21T09:02:56;17.23;;;8.77;;
70985;SDS011;58645;43.068;25.610;2023-11-21T09:05:22;14.32;;;8.45;;
70985;SDS011;58645;43.068;25.610;2023-11-21T09:10:14;17.73;;;9.07;;
70985;SDS011;58645;43.068;25.610;2023-11-21T09:12:39;23.90;;;11.10;;
70985;SDS011;58645;43.068;25.610;2023-11-21T09:15:06;20.65;;;11.52;;
70985;SDS011;58645;43.068;25.610;2023-11-21T09:17:35;30.20;;;11.95;;
70985;SDS011;58645;43.068;25.610;2023-11-21T09:20:01;30.38;;;10.90;;
70985;SDS011;58645;43.068;25.610;2023-11-21T09:22:30;22.15;;;10.52;;
70985;SDS011;58645;43.068;25.610;2023-11-21T09:24:56;24.17;;;11.73;;
70985;SDS011;58645;43.068;25.610;2023-11-21T09:27:23;21.95;;;10.20;;
70985;SDS011;58645;43.068;25.610;2023-11-21T09:29:49;26.80;;;11.93;;
70985;SDS011;58645;43.068;25.610;2023-11-21T09:34:41;21.95;;;10.05;;
70985;SDS011;58645;43.068;25.610;2023-11-21T09:39:33;23.88;;;9.52;;
70985;SDS011;58645;43.068;25.610;2023-11-21T09:42:04;16.73;;;6.55;;
70985;SDS011;58645;43.068;25.610;2023-11-21T09:44:40;13.45;;;5.65;;
70985;SDS011;58645;43.068;25.610;2023-11-21T09:47:08;11.75;;;5.68;;
70985;SDS011;58645;43.068;25.610;2023-11-21T09:49:35;9.88;;;5.80;;
70985;SDS011;58645;43.068;25.610;2023-11-21T09:52:03;18.02;;;6.15;;
70985;SDS011;58645;43.068;25.610;2023-11-21T09:54:36;15.93;;;7.10;;
70985;SDS011;58645;43.068;25.610;2023-11-21T09:57:02;14.18;;;8.00;;
70985;SDS011;58645;43.068;25.610;2023-11-21T09:59:30;13.40;;;7.30;;
70985;SDS011;58645;43.068;25.610;2023-11-21T10:01:58;18.25;;;8.25;;
70985;SDS011;58645;43.068;25.610;2023-11-21T10:04:25;12.07;;;5.10;;
70985;SDS011;58645;43.068;25.610;2023-11-21T10:06:51;10.10;;;4.05;;
70985;SDS011;58645;43.068;25.610;2023-11-21T10:09:19;14.98;;;5.43;;
70985;SDS011;58645;43.068;25.610;2023-11-21T10:11:47;17.92;;;4.07;;
70985;SDS011;58645;43.068;25.610;2023-11-21T10:14:17;5.97;;;2.95;;
70985;SDS011;58645;43.068;25.610;2023-11-21T10:16:49;4.10;;;2.58;;
70985;SDS011;58645;43.068;25.610;2023-11-21T10:19:17;5.47;;;2.33;;
70985;SDS011;58645;43.068;25.610;2023-11-21T10:21:47;6.03;;;2.08;;
70985;SDS011;58645;43.068;25.610;2023-11-21T10:24:12;8.73;;;2.92;;
70985;SDS011;58645;43.068;25.610;2023-11-21T10:26:39;10.27;;;2.90;;
70985;SDS011;58645;43.068;25.610;2023-11-21T10:29:06;15.65;;;5.00;;
70985;SDS011;58645;43.068;25.610;2023-11-21T10:31:33;6.40;;;3.90;;
70985;SDS011;58645;43.068;25.610;2023-11-21T10:34:15;7.57;;;5.18;;
70985;SDS011;58645;43.068;25.610;2023-11-21T10:36:42;8.02;;;4.90;;
70985;SDS011;58645;43.068;25.610;2023-11-21T10:39:08;9.90;;;4.90;;
70985;SDS011;58645;43.068;25.610;2023-11-21T10:41:37;6.75;;;4.32;;
70985;SDS011;58645;43.068;25.610;2023-11-21T10:44:03;6.88;;;3.47;;
70985;SDS011;58645;43.068;25.610;2023-11-21T10:46:31;8.52;;;5.35;;
70985;SDS011;58645;43.068;25.610;2023-11-21T10:48:57;7.57;;;4.30;;
70985;SDS011;58645;43.068;25.610;2023-11-21T10:51:25;8.38;;;4.15;;
70985;SDS011;58645;43.068;25.610;2023-11-21T10:53:51;6.53;;;3.20;;
70985;SDS011;58645;43.068;25.610;2023-11-21T10:56:18;8.57;;;3.78;;
70985;SDS011;58645;43.068;25.610;2023-11-21T10:59:02;7.75;;;3.00;;
70985;SDS011;58645;43.068;25.610;2023-11-21T11:01:44;6.75;;;3.17;;
70985;SDS011;58645;43.068;25.610;2023-11-21T11:04:14;6.88;;;3.22;;
70985;SDS011;58645;43.068;25.610;2023-11-21T11:06:52;4.95;;;2.33;;
70985;SDS011;58645;43.068;25.610;2023-11-21T11:09:21;4.78;;;2.30;;
70985;SDS011;58645;43.068;25.610;2023-11-21T11:11:47;4.95;;;2.10;;
70985;SDS011;58645;43.068;25.610;2023-11-21T11:14:14;2.88;;;1.45;;
70985;SDS011;58645;43.068;25.610;2023-11-21T11:16:41;2.90;;;1.50;;
70985;SDS011;58645;43.068;25.610;2023-11-21T11:19:08;3.00;;;1.50;;
70985;SDS011;58645;43.068;25.610;2023-11-21T11:27:30;2.65;;;1.30;;
70985;SDS011;58645;43.068;25.610;2023-11-21T11:30:09;2.58;;;1.13;;
70985;SDS011;58645;43.068;25.610;2023-11-21T11:37:48;4.65;;;1.40;;
70985;SDS011;58645;43.068;25.610;2023-11-21T11:40:14;2.75;;;1.02;;
70985;SDS011;58645;43.068;25.610;2023-11-21T11:42:54;3.90;;;1.05;;
70985;SDS011;58645;43.068;25.610;2023-11-21T11:45:22;4.03;;;1.17;;
70985;SDS011;58645;43.068;25.610;2023-11-21T11:47:57;2.28;;;1.10;;
70985;SDS011;58645;43.068;25.610;2023-11-21T11:50:23;2.63;;;1.48;;
70985;SDS011;58645;43.068;25.610;2023-11-21T11:52:51;3.33;;;1.13;;
70985;SDS011;58645;43.068;25.610;2023-11-21T11:55:25;1.75;;;1.00;;
70985;SDS011;58645;43.068;25.610;2023-11-21T11:57:55;6.32;;;1.10;;
70985;SDS011;58645;43.068;25.610;2023-11-21T12:02:54;1.63;;;1.10;;
70985;SDS011;58645;43.068;25.610;2023-11-21T12:05:39;2.45;;;1.80;;
70985;SDS011;58645;43.068;25.610;2023-11-21T12:08:09;2.00;;;1.20;;
70985;SDS011;58645;43.068;25.610;2023-11-21T12:10:37;1.98;;;1.35;;
70985;SDS011;58645;43.068;25.610;2023-11-21T12:13:10;2.28;;;1.83;;
70985;SDS011;58645;43.068;25.610;2023-11-21T12:15:38;2.95;;;0.90;;
70985;SDS011;58645;43.068;25.610;2023-11-21T12:18:06;1.77;;;1.20;;
70985;SDS011;58645;43.068;25.610;2023-11-21T12:23:03;2.25;;;0.75;;
70985;SDS011;58645;43.068;25.610;2023-11-21T12:25:30;1.70;;;0.88;;
70985;SDS011;58645;43.068;25.610;2023-11-21T12:27:58;2.40;;;1.10;;
70985;SDS011;58645;43.068;25.610;2023-11-21T12:30:26;1.60;;;0.90;;
70985;SDS011;58645;43.068;25.610;2023-11-21T12:32:55;3.03;;;0.80;;
70985;SDS011;58645;43.068;25.610;2023-11-21T12:35:24;1.40;;;1.23;;
70985;SDS011;58645;43.068;25.610;2023-11-21T12:37:52;1.88;;;1.25;;
70985;SDS011;58645;43.068;25.610;2023-11-21T12:40:19;1.30;;;1.13;;
70985;SDS011;58645;43.068;25.610;2023-11-21T12:42:45;2.10;;;0.73;;
70985;SDS011;58645;43.068;25.610;2023-11-21T12:47:50;2.25;;;1.50;;
70985;SDS011;58645;43.068;25.610;2023-11-21T12:50:26;1.95;;;1.30;;
70985;SDS011;58645;43.068;25.610;2023-11-21T12:53:06;2.95;;;1.10;;
70985;SDS011;58645;43.068;25.610;2023-11-21T12:55:41;3.70;;;1.48;;
70985;SDS011;58645;43.068;25.610;2023-11-21T12:58:15;3.65;;;1.83;;
70985;SDS011;58645;43.068;25.610;2023-11-21T13:00:47;2.10;;;1.23;;
70985;SDS011;58645;43.068;25.610;2023-11-21T13:03:14;2.58;;;1.15;;
70985;SDS011;58645;43.068;25.610;2023-11-21T13:05:45;1.75;;;1.00;;
70985;SDS011;58645;43.068;25.610;2023-11-21T13:08:16;2.17;;;1.35;;
70985;SDS011;58645;43.068;25.610;2023-11-21T13:10:46;1.35;;;0.77;;
70985;SDS011;58645;43.068;25.610;2023-11-21T13:13:15;2.97;;;1.60;;
70985;SDS011;58645;43.068;25.610;2023-11-21T13:15:47;2.10;;;0.93;;
70985;SDS011;58645;43.068;25.610;2023-11-21T13:18:18;2.78;;;1.33;;
70985;SDS011;58645;43.068;25.610;2023-11-21T13:20:44;2.45;;;1.30;;
70985;SDS011;58645;43.068;25.610;2023-11-21T13:23:12;3.35;;;2.47;;
70985;SDS011;58645;43.068;25.610;2023-11-21T13:25:41;2.80;;;1.70;;
70985;SDS011;58645;43.068;25.610;2023-11-21T13:28:07;3.42;;;2.15;;
70985;SDS011;58645;43.068;25.610;2023-11-21T13:30:35;3.88;;;2.28;;
70985;SDS011;58645;43.068;25.610;2023-11-21T13:33:01;3.67;;;2.00;;
70985;SDS011;58645;43.068;25.610;2023-11-21T13:35:30;2.80;;;2.10;;
70985;SDS011;58645;43.068;25.610;2023-11-21T13:38:05;2.45;;;1.40;;
70985;SDS011;58645;43.068;25.610;2023-11-21T13:40:36;2.72;;;2.03;;
70985;SDS011;58645;43.068;25.610;2023-11-21T13:43:10;2.80;;;1.73;;
70985;SDS011;58645;43.068;25.610;2023-11-21T13:45:37;2.03;;;1.55;;
70985;SDS011;58645;43.068;25.610;2023-11-21T13:48:04;3.33;;;1.83;;
70985;SDS011;58645;43.068;25.610;2023-11-21T13:50:35;2.28;;;1.42;;
70985;SDS011;58645;43.068;25.610;2023-11-21T13:53:01;3.83;;;2.75;;
70985;SDS011;58645;43.068;25.610;2023-11-21T13:55:48;2.45;;;1.52;;
70985;SDS011;58645;43.068;25.610;2023-11-21T13:58:23;3.08;;;2.05;;
70985;SDS011;58645;43.068;25.610;2023-11-21T14:01:07;9.48;;;2.25;;
70985;SDS011;58645;43.068;25.610;2023-11-21T14:03:49;3.60;;;1.77;;
70985;SDS011;58645;43.068;25.610;2023-11-21T14:06:22;2.58;;;1.48;;
70985;SDS011;58645;43.068;25.610;2023-11-21T14:08:53;2.40;;;2.08;;
70985;SDS011;58645;43.068;25.610;2023-11-21T14:11:21;2.88;;;1.40;;
70985;SDS011;58645;43.068;25.610;2023-11-21T14:13:47;3.67;;;2.00;;
70985;SDS011;58645;43.068;25.610;2023-11-21T14:16:14;2.13;;;1.55;;
70985;SDS011;58645;43.068;25.610;2023-11-21T14:18:42;4.13;;;2.10;;
70985;SDS011;58645;43.068;25.610;2023-11-21T14:21:19;3.97;;;1.52;;
70985;SDS011;58645;43.068;25.610;2023-11-21T14:23:45;4.47;;;2.30;;
70985;SDS011;58645;43.068;25.610;2023-11-21T14:26:11;4.05;;;2.10;;
70985;SDS011;58645;43.068;25.610;2023-11-21T14:28:41;5.40;;;2.00;;
70985;SDS011;58645;43.068;25.610;2023-11-21T14:31:07;3.00;;;1.52;;
70985;SDS011;58645;43.068;25.610;2023-11-21T14:33:38;2.05;;;1.23;;
70985;SDS011;58645;43.068;25.610;2023-11-21T14:36:04;5.60;;;2.70;;
70985;SDS011;58645;43.068;25.610;2023-11-21T14:38:33;3.35;;;2.30;;
70985;SDS011;58645;43.068;25.610;2023-11-21T14:40:59;3.90;;;2.25;;
70985;SDS011;58645;43.068;25.610;2023-11-21T14:43:24;3.22;;;2.22;;
70985;SDS011;58645;43.068;25.610;2023-11-21T14:45:54;3.53;;;1.90;;
70985;SDS011;58645;43.068;25.610;2023-11-21T14:48:22;3.80;;;2.00;;
70985;SDS011;58645;43.068;25.610;2023-11-21T14:51:23;4.35;;;2.28;;
70985;SDS011;58645;43.068;25.610;2023-11-21T14:54:16;2.88;;;1.70;;
70985;SDS011;58645;43.068;25.610;2023-11-21T14:56:51;3.42;;;2.22;;
70985;SDS011;58645;43.068;25.610;2023-11-21T14:59:18;3.78;;;2.85;;
70985;SDS011;58645;43.068;25.610;2023-11-21T15:01:43;4.00;;;2.35;;
70985;SDS011;58645;43.068;25.610;2023-11-21T15:04:21;3.95;;;2.38;;
70985;SDS011;58645;43.068;25.610;2023-11-21T15:07:04;3.97;;;2.90;;